Terminal Aerodrome Forecast
Issued by NWS

Home | Current Version | Previous Version | Text Only | Print | Product List | Glossary On
Versions: 1 2 3 4 5 6 7 8 9 10 11 12 13 14 15 16 17
000
FTUS43 KMQT 062004 AAB
TAFSAW
TAF AMD
KSAW 062004Z 0620/0718 16012G17KT P6SM FEW200
     FM070100 19008KT P6SM VCTS SCT150CB
     FM070300 22008KT P6SM -SHRA BKN090
     FM070600 35015G20KT P6SM VCSH OVC050 WS010/35045KT
     FM070800 35013G19KT P6SM VCSH BKN130
     FM071100 35009KT P6SM FEW200=

USA.gov is the U.S. government's official web portal to all federal, state and local government web resources and services.